Time;durP1;ratioP1;P1;durP2;ratioP2;P2;SDS_P1;SDS_P2;PMS_P1;PMS_P2;Temp;Humidity;BMP_temperature;BMP_pressure;BME280_temperature;BME280_humidity;BME280_pressure;Samples;Min_cycle;Max_cycle;Signal;HPM_P1;HPM_P2
2023/03/12 00:01:25;;;;;;;11.83;10.93;;;;;;;;;;5032258;28;20402;-82
2023/03/12 00:03:52;;;;;;;11.23;10.32;;;;;;;;;;5032380;28;20376;-82
2023/03/12 00:06:19;;;;;;;11.07;10.17;;;;;;;;;;5032108;28;20487;-82
2023/03/12 00:08:45;;;;;;;11.30;10.48;;;;;;;;;;5032254;28;20387;-82
2023/03/12 00:11:15;;;;;;;10.95;10.05;;;;;;;;;;5031530;28;20415;-82
2023/03/12 00:13:41;;;;;;;11.10;10.30;;;;;;;;;;5032058;28;20387;-82
2023/03/12 00:16:09;;;;;;;10.40;9.70;;;;;;;;;;5032052;28;20382;-82
2023/03/12 00:18:35;;;;;;;12.80;11.80;;;;;;;;;;5031742;28;20458;-82
2023/03/12 00:21:01;;;;;;;15.65;14.25;;;;;;;;;;5032038;28;20458;-82
2023/03/12 00:23:27;;;;;;;14.15;12.95;;;;;;;;;;5032214;28;20796;-82
2023/03/12 00:25:53;;;;;;;15.25;13.75;;;;;;;;;;5030603;28;20399;-82
2023/03/12 00:28:19;;;;;;;12.65;11.55;;;;;;;;;;5031730;28;20466;-82
2023/03/12 00:30:45;;;;;;;12.23;11.18;;;;;;;;;;5031222;28;20467;-82
2023/03/12 00:33:11;;;;;;;12.38;11.38;;;;;;;;;;5028966;28;20491;-82
2023/03/12 00:35:38;;;;;;;12.32;11.25;;;;;;;;;;5031715;28;20411;-82
2023/03/12 00:38:04;;;;;;;12.48;11.50;;;;;;;;;;5031496;28;20470;-83
2023/03/12 00:40:30;;;;;;;12.98;11.77;;;;;;;;;;5031490;28;20860;-82
2023/03/12 00:42:56;;;;;;;12.48;11.38;;;;;;;;;;5031163;28;20448;-83
2023/03/12 00:45:22;;;;;;;11.90;11.00;;;;;;;;;;5031556;28;20757;-83
2023/03/12 00:47:48;;;;;;;13.18;11.98;;;;;;;;;;5031587;28;20414;-83
2023/03/12 00:50:14;;;;;;;13.20;12.00;;;;;;;;;;5031437;28;20391;-83
2023/03/12 00:52:40;;;;;;;12.63;11.52;;;;;;;;;;5033354;28;20410;-83
2023/03/12 00:55:06;;;;;;;10.85;9.95;;;;;;;;;;5030324;28;20495;-83
2023/03/12 00:57:32;;;;;;;10.47;9.60;;;;;;;;;;5030701;28;20424;-83
2023/03/12 00:59:58;;;;;;;9.40;8.70;;;;;;;;;;5031338;28;20856;-83
2023/03/12 01:02:24;;;;;;;9.30;8.60;;;;;;;;;;5021259;28;20380;-83
2023/03/12 01:04:50;;;;;;;9.05;8.35;;;;;;;;;;5030300;28;20458;-83
2023/03/12 01:07:16;;;;;;;9.23;8.52;;;;;;;;;;5031241;28;20861;-82
2023/03/12 01:09:42;;;;;;;9.43;8.67;;;;;;;;;;5030915;28;20415;-83
2023/03/12 01:12:08;;;;;;;9.32;8.55;;;;;;;;;;5031314;28;20394;-83
2023/03/12 01:14:34;;;;;;;8.70;8.00;;;;;;;;;;5031974;28;20450;-83
2023/03/12 01:17:00;;;;;;;8.80;8.10;;;;;;;;;;5031224;28;20379;-83
2023/03/12 01:19:26;;;;;;;8.80;8.10;;;;;;;;;;5031007;28;20403;-83
2023/03/12 01:21:52;;;;;;;9.35;8.65;;;;;;;;;;5036196;28;20457;-83
2023/03/12 01:24:18;;;;;;;9.20;8.50;;;;;;;;;;5031224;28;20418;-83
2023/03/12 01:26:44;;;;;;;9.32;8.63;;;;;;;;;;5031092;28;20517;-83
2023/03/12 01:29:10;;;;;;;9.02;8.32;;;;;;;;;;5030971;28;20391;-83
2023/03/12 01:31:36;;;;;;;9.20;8.50;;;;;;;;;;5034707;28;20387;-83
2023/03/12 01:34:02;;;;;;;12.55;11.65;;;;;;;;;;5034963;28;20410;-83
2023/03/12 01:36:29;;;;;;;15.25;14.05;;;;;;;;;;5036649;28;20751;-83
2023/03/12 01:38:56;;;;;;;17.20;15.70;;;;;;;;;;5034937;28;20891;-83
2023/03/12 01:41:23;;;;;;;17.08;15.68;;;;;;;;;;5035132;28;20852;-83
2023/03/12 01:43:49;;;;;;;17.73;16.33;;;;;;;;;;5034974;28;20448;-83
2023/03/12 01:46:15;;;;;;;18.27;16.65;;;;;;;;;;5030728;28;20411;-83
2023/03/12 01:48:48;;;;;;;18.57;16.97;;;;;;;;;;5034869;28;20785;-83
2023/03/12 01:51:15;;;;;;;18.55;16.95;;;;;;;;;;5039744;28;20417;-83
2023/03/12 01:53:44;;;;;;;19.42;17.73;;;;;;;;;;5043617;28;20732;-83
2023/03/12 01:56:10;;;;;;;19.33;17.63;;;;;;;;;;5048939;28;20895;-83
2023/03/12 01:58:37;;;;;;;19.00;17.33;;;;;;;;;;5035313;28;20411;-83
2023/03/12 02:01:03;;;;;;;20.05;18.25;;;;;;;;;;5044368;28;20463;-83
2023/03/12 02:03:29;;;;;;;22.25;20.15;;;;;;;;;;5045808;28;20466;-83
2023/03/12 02:05:59;;;;;;;22.77;20.57;;;;;;;;;;5045442;28;20379;-83
2023/03/12 02:08:25;;;;;;;21.55;19.55;;;;;;;;;;5045092;28;20411;-82
2023/03/12 02:10:51;;;;;;;20.35;18.48;;;;;;;;;;5041790;28;20475;-83
2023/03/12 02:13:18;;;;;;;21.05;19.10;;;;;;;;;;5038506;28;20415;-83
2023/03/12 02:15:44;;;;;;;20.07;18.27;;;;;;;;;;5035605;28;20505;-83
2023/03/12 02:18:11;;;;;;;20.50;18.60;;;;;;;;;;5035484;28;20418;-83
2023/03/12 02:20:37;;;;;;;19.83;17.98;;;;;;;;;;5034796;28;20387;-83
2023/03/12 02:23:06;;;;;;;20.37;18.57;;;;;;;;;;5034592;28;20472;-82
2023/03/12 02:25:40;;;;;;;19.50;17.75;;;;;;;;;;5034325;28;20388;-83
2023/03/12 02:28:07;;;;;;;19.45;17.65;;;;;;;;;;5034464;28;20391;-83
2023/03/12 02:30:33;;;;;;;19.35;17.65;;;;;;;;;;5034079;28;20391;-83
2023/03/12 02:33:01;;;;;;;17.45;15.95;;;;;;;;;;5034155;28;20464;-83
2023/03/12 02:35:27;;;;;;;18.15;16.48;;;;;;;;;;5034211;28;20411;-83
2023/03/12 02:37:54;;;;;;;17.20;15.70;;;;;;;;;;5034016;28;20382;-83
2023/03/12 02:40:42;;;;;;;16.80;15.40;;;;;;;;;;5031475;28;20423;-83
2023/03/12 02:43:09;;;;;;;16.17;14.87;;;;;;;;;;5026034;28;20911;-83
2023/03/12 02:45:36;;;;;;;15.40;14.10;;;;;;;;;;5031958;28;20393;-83
2023/03/12 02:48:03;;;;;;;16.88;15.50;;;;;;;;;;5032906;28;20395;-82
2023/03/12 02:50:29;;;;;;;16.13;14.82;;;;;;;;;;5033701;28;20389;-83
2023/03/12 02:52:54;;;;;;;16.05;14.75;;;;;;;;;;5033583;28;20387;-83
2023/03/12 02:55:20;;;;;;;16.83;15.32;;;;;;;;;;5025955;28;20404;-83
2023/03/12 02:57:46;;;;;;;15.67;14.47;;;;;;;;;;5030636;28;20424;-83
2023/03/12 03:00:13;;;;;;;15.68;14.30;;;;;;;;;;5036104;28;20386;-83
2023/03/12 03:02:40;;;;;;;16.10;14.80;;;;;;;;;;5033546;28;20387;-83
2023/03/12 03:05:06;;;;;;;15.40;14.10;;;;;;;;;;5033620;28;20383;-83
2023/03/12 03:07:32;;;;;;;15.75;14.45;;;;;;;;;;5033548;28;20402;-83
2023/03/12 03:10:03;;;;;;;16.33;14.82;;;;;;;;;;5031975;28;20442;-83
2023/03/12 03:12:29;;;;;;;16.23;14.93;;;;;;;;;;5033469;28;20821;-83
2023/03/12 03:14:55;;;;;;;16.90;15.43;;;;;;;;;;5033004;28;20411;-83
2023/03/12 03:17:23;;;;;;;17.27;15.80;;;;;;;;;;5033338;28;20771;-83
2023/03/12 03:19:49;;;;;;;16.77;15.32;;;;;;;;;;5033124;28;20379;-83
2023/03/12 03:22:15;;;;;;;17.02;15.55;;;;;;;;;;5031755;28;20398;-83
2023/03/12 03:24:41;;;;;;;16.48;14.98;;;;;;;;;;5033195;28;20383;-83
2023/03/12 03:27:07;;;;;;;15.52;14.23;;;;;;;;;;5033633;28;20391;-83
2023/03/12 03:29:33;;;;;;;15.03;13.83;;;;;;;;;;5031778;28;20384;-83
2023/03/12 03:31:59;;;;;;;14.65;13.40;;;;;;;;;;5035540;28;20398;-83
2023/03/12 03:34:25;;;;;;;14.10;12.95;;;;;;;;;;5031591;28;20414;-83
2023/03/12 03:36:51;;;;;;;13.75;12.65;;;;;;;;;;5032886;28;20442;-83
2023/03/12 03:39:17;;;;;;;13.15;12.15;;;;;;;;;;5032835;28;20470;-83
2023/03/12 03:41:45;;;;;;;14.07;12.98;;;;;;;;;;5032807;28;20386;-83
2023/03/12 03:44:11;;;;;;;13.00;11.95;;;;;;;;;;5032730;28;20427;-83
2023/03/12 03:46:37;;;;;;;13.55;12.50;;;;;;;;;;5032747;28;20881;-83
2023/03/12 03:49:03;;;;;;;12.93;11.82;;;;;;;;;;5030858;28;20466;-83
2023/03/12 03:51:29;;;;;;;13.60;12.50;;;;;;;;;;5032658;28;20543;-83
2023/03/12 03:53:55;;;;;;;13.17;12.07;;;;;;;;;;5032220;28;20375;-83
2023/03/12 03:56:21;;;;;;;12.55;11.55;;;;;;;;;;5032549;28;20429;-83
2023/03/12 03:58:47;;;;;;;11.93;11.02;;;;;;;;;;5032503;28;20454;-83
2023/03/12 04:01:14;;;;;;;11.13;10.30;;;;;;;;;;5031957;28;20490;-83
2023/03/12 04:03:40;;;;;;;11.02;10.23;;;;;;;;;;5032316;28;20887;-83
2023/03/12 04:06:06;;;;;;;11.40;10.40;;;;;;;;;;5032295;28;20383;-83
2023/03/12 04:08:34;;;;;;;11.07;10.18;;;;;;;;;;5032229;28;20395;-83
2023/03/12 04:11:00;;;;;;;10.27;9.48;;;;;;;;;;5031909;28;20979;-83
2023/03/12 04:13:26;;;;;;;10.13;9.33;;;;;;;;;;5032107;28;20482;-83
2023/03/12 04:15:53;;;;;;;10.13;9.25;;;;;;;;;;5032048;28;20407;-83
2023/03/12 04:18:19;;;;;;;11.40;10.50;;;;;;;;;;5031965;28;20387;-83
2023/03/12 04:20:45;;;;;;;11.27;10.45;;;;;;;;;;5031978;28;20817;-83
2023/03/12 04:23:11;;;;;;;11.33;10.33;;;;;;;;;;5031944;28;20450;-83
2023/03/12 04:25:37;;;;;;;10.95;10.15;;;;;;;;;;5031953;28;20387;-83
2023/03/12 04:28:04;;;;;;;11.00;10.10;;;;;;;;;;5031873;28;20387;-83
2023/03/12 04:30:30;;;;;;;11.35;10.45;;;;;;;;;;5031689;28;20860;-83
2023/03/12 04:32:56;;;;;;;10.75;9.85;;;;;;;;;;5031895;28;20394;-83
2023/03/12 04:35:23;;;;;;;10.32;9.32;;;;;;;;;;5031575;28;20813;-83
2023/03/12 04:37:49;;;;;;;10.43;9.52;;;;;;;;;;5031776;28;20437;-83
2023/03/12 04:40:18;;;;;;;10.48;9.65;;;;;;;;;;5031734;28;20435;-83
2023/03/12 04:42:44;;;;;;;9.63;8.82;;;;;;;;;;5031640;28;20391;-83
2023/03/12 04:45:10;;;;;;;9.75;8.93;;;;;;;;;;5031635;28;20387;-82
2023/03/12 04:47:36;;;;;;;9.07;8.38;;;;;;;;;;5031247;28;20465;-83
2023/03/12 04:50:02;;;;;;;9.10;8.40;;;;;;;;;;5031422;28;20415;-82
2023/03/12 04:52:28;;;;;;;9.37;8.67;;;;;;;;;;5031442;28;20402;-83
2023/03/12 04:54:54;;;;;;;9.63;8.85;;;;;;;;;;5030057;28;20406;-83
2023/03/12 04:57:20;;;;;;;10.18;9.27;;;;;;;;;;5029611;28;20463;-83
2023/03/12 04:59:46;;;;;;;9.40;8.60;;;;;;;;;;5031874;28;20391;-83
2023/03/12 05:02:12;;;;;;;9.27;8.52;;;;;;;;;;5027719;28;20381;-83
2023/03/12 05:04:38;;;;;;;8.40;7.80;;;;;;;;;;5026409;28;20383;-83
2023/03/12 05:07:04;;;;;;;8.20;7.50;;;;;;;;;;5031240;28;20780;-83
2023/03/12 05:09:30;;;;;;;8.10;7.50;;;;;;;;;;5030667;28;20442;-83
2023/03/12 05:11:56;;;;;;;7.75;7.15;;;;;;;;;;5031261;28;20414;-83
2023/03/12 05:14:22;;;;;;;8.40;7.70;;;;;;;;;;5030889;28;20974;-83
2023/03/12 05:16:48;;;;;;;7.50;6.90;;;;;;;;;;5030884;28;20392;-83
2023/03/12 05:19:14;;;;;;;7.50;6.90;;;;;;;;;;5030764;28;20383;-83
2023/03/12 05:21:41;;;;;;;7.63;7.03;;;;;;;;;;5027964;28;20429;-83
2023/03/12 05:24:08;;;;;;;7.53;6.88;;;;;;;;;;5029369;28;20379;-83
2023/03/12 05:26:34;;;;;;;7.78;7.18;;;;;;;;;;5034778;28;20409;-83
2023/03/12 05:29:00;;;;;;;7.25;6.70;;;;;;;;;;5031235;28;20782;-83
2023/03/12 05:31:27;;;;;;;9.10;8.30;;;;;;;;;;5036091;28;20884;-83
2023/03/12 05:33:53;;;;;;;9.43;8.73;;;;;;;;;;5036188;28;20487;-82
2023/03/12 05:36:19;;;;;;;10.10;9.30;;;;;;;;;;5042728;28;20395;-83
2023/03/12 05:38:45;;;;;;;9.63;8.82;;;;;;;;;;5026949;28;20392;-82
2023/03/12 05:41:19;;;;;;;9.48;8.70;;;;;;;;;;5032428;28;20397;-83
2023/03/12 05:43:45;;;;;;;10.32;9.52;;;;;;;;;;5031048;28;20729;-83
2023/03/12 05:46:11;;;;;;;9.55;8.70;;;;;;;;;;5031006;28;20387;-83
2023/03/12 05:48:37;;;;;;;9.63;8.93;;;;;;;;;;5030925;28;20387;-83
2023/03/12 05:51:04;;;;;;;10.43;9.52;;;;;;;;;;5030329;28;20387;-83
2023/03/12 05:53:30;;;;;;;10.77;9.93;;;;;;;;;;5029032;28;20390;-83
2023/03/12 05:56:01;;;;;;;12.75;11.65;;;;;;;;;;5025914;28;20407;-83
2023/03/12 05:58:27;;;;;;;12.52;11.40;;;;;;;;;;5021899;28;20379;-82
2023/03/12 06:00:53;;;;;;;12.07;11.00;;;;;;;;;;5028389;28;20398;-83
2023/03/12 06:03:19;;;;;;;11.57;10.68;;;;;;;;;;5030259;28;20445;-83
2023/03/12 06:05:46;;;;;;;12.68;11.68;;;;;;;;;;5029870;28;20440;-83
2023/03/12 06:08:12;;;;;;;12.90;11.90;;;;;;;;;;5030453;28;20387;-83
2023/03/12 06:10:39;;;;;;;13.15;12.05;;;;;;;;;;5030459;28;20411;-83
2023/03/12 06:13:05;;;;;;;13.95;12.70;;;;;;;;;;5029155;28;20447;-82
2023/03/12 06:15:31;;;;;;;12.70;11.70;;;;;;;;;;5030524;28;20407;-83
2023/03/12 06:17:57;;;;;;;12.60;11.60;;;;;;;;;;5034399;28;20383;-83
2023/03/12 06:20:23;;;;;;;12.07;11.10;;;;;;;;;;5034382;28;20386;-83
2023/03/12 06:22:49;;;;;;;12.60;11.60;;;;;;;;;;5033800;28;20760;-82
2023/03/12 06:25:15;;;;;;;13.35;12.05;;;;;;;;;;5034269;28;20469;-83
2023/03/12 06:27:41;;;;;;;12.38;11.40;;;;;;;;;;5034238;28;20426;-83
2023/03/12 06:30:07;;;;;;;14.75;13.50;;;;;;;;;;5036959;28;20381;-83
2023/03/12 06:32:34;;;;;;;16.35;14.77;;;;;;;;;;5033801;28;20390;-82
2023/03/12 06:34:59;;;;;;;17.80;16.10;;;;;;;;;;5033969;28;20450;-81
2023/03/12 06:37:26;;;;;;;19.92;17.75;;;;;;;;;;5033940;28;20414;-81
2023/03/12 06:39:52;;;;;;;18.95;17.15;;;;;;;;;;5033973;28;20379;-82
2023/03/12 06:42:19;;;;;;;17.58;15.88;;;;;;;;;;5032322;28;20391;-81
2023/03/12 06:44:45;;;;;;;18.02;16.33;;;;;;;;;;5033428;28;20474;-83
2023/03/12 06:47:11;;;;;;;17.48;15.88;;;;;;;;;;5033748;28;20477;-81
2023/03/12 06:49:37;;;;;;;16.60;15.20;;;;;;;;;;5033677;28;20541;-81
2023/03/12 06:52:04;;;;;;;16.95;15.45;;;;;;;;;;5036106;28;20882;-82
2023/03/12 06:54:30;;;;;;;16.25;14.75;;;;;;;;;;5043112;28;20414;-81
2023/03/12 06:56:58;;;;;;;15.88;14.43;;;;;;;;;;5033288;28;20923;-80
2023/03/12 06:59:24;;;;;;;16.27;14.77;;;;;;;;;;5033556;28;20958;-81
2023/03/12 07:01:50;;;;;;;16.83;15.33;;;;;;;;;;5033530;28;20706;-80
2023/03/12 07:04:16;;;;;;;16.70;15.20;;;;;;;;;;5026724;28;20440;-82
2023/03/12 07:06:42;;;;;;;18.80;16.90;;;;;;;;;;5033544;28;20446;-83
2023/03/12 07:09:08;;;;;;;20.58;18.38;;;;;;;;;;5033029;28;20791;-81
2023/03/12 07:11:34;;;;;;;22.00;19.60;;;;;;;;;;5033101;28;20387;-80
2023/03/12 07:14:00;;;;;;;25.80;22.15;;;;;;;;;;5033367;28;20380;-82
2023/03/12 07:16:26;;;;;;;24.90;21.92;;;;;;;;;;5032807;28;20466;-81
2023/03/12 07:18:52;;;;;;;28.13;22.77;;;;;;;;;;5033215;28;20760;-84
2023/03/12 07:21:22;;;;;;;27.98;22.95;;;;;;;;;;5033138;28;20387;-84
2023/03/12 07:23:51;;;;;;;26.73;22.27;;;;;;;;;;5033305;28;20421;-84
2023/03/12 07:26:18;;;;;;;26.45;22.60;;;;;;;;;;5032562;28;21117;-80
2023/03/12 07:28:44;;;;;;;25.25;21.65;;;;;;;;;;5032796;28;20391;-80
2023/03/12 07:31:10;;;;;;;25.98;21.50;;;;;;;;;;5036081;28;20406;-81
2023/03/12 07:33:36;;;;;;;29.27;23.63;;;;;;;;;;5032469;28;20375;-79
2023/03/12 07:36:02;;;;;;;30.80;23.60;;;;;;;;;;5032466;28;20410;-80
2023/03/12 07:38:28;;;;;;;30.23;24.00;;;;;;;;;;5032326;28;20476;-80
2023/03/12 07:40:55;;;;;;;29.63;24.52;;;;;;;;;;5027396;28;20491;-80
2023/03/12 07:43:21;;;;;;;27.33;23.63;;;;;;;;;;5032735;28;20386;-80
2023/03/12 07:45:48;;;;;;;33.25;25.98;;;;;;;;;;5032757;28;20399;-80
2023/03/12 07:48:14;;;;;;;32.37;25.97;;;;;;;;;;5032664;28;20394;-80
2023/03/12 07:50:41;;;;;;;31.20;24.75;;;;;;;;;;5032560;28;20450;-80
2023/03/12 07:53:07;;;;;;;33.00;26.30;;;;;;;;;;5032688;28;20855;-80
2023/03/12 07:55:34;;;;;;;31.00;25.35;;;;;;;;;;5032499;28;20395;-80
2023/03/12 07:58:00;;;;;;;30.20;24.53;;;;;;;;;;5032743;28;20487;-81
2023/03/12 08:00:27;;;;;;;29.63;23.63;;;;;;;;;;5032332;28;20390;-80
2023/03/12 08:02:53;;;;;;;27.07;23.30;;;;;;;;;;5032010;28;20405;-81
2023/03/12 08:05:19;;;;;;;29.30;23.35;;;;;;;;;;5032406;28;20880;-80
2023/03/12 08:07:45;;;;;;;25.95;22.55;;;;;;;;;;5032431;28;20383;-79
2023/03/12 08:10:11;;;;;;;26.25;22.85;;;;;;;;;;5032785;28;20414;-80
2023/03/12 08:12:37;;;;;;;26.40;22.77;;;;;;;;;;5048135;28;20391;-80
2023/03/12 08:15:04;;;;;;;27.25;22.45;;;;;;;;;;5032147;28;20410;-80
2023/03/12 08:17:30;;;;;;;26.80;22.95;;;;;;;;;;5032861;28;20385;-80
2023/03/12 08:19:56;;;;;;;25.85;22.95;;;;;;;;;;5031811;28;20387;-80
2023/03/12 08:22:22;;;;;;;26.50;23.35;;;;;;;;;;5032333;28;20376;-80
2023/03/12 08:24:48;;;;;;;24.50;21.73;;;;;;;;;;5031967;28;20851;-80
2023/03/12 08:27:14;;;;;;;25.20;22.60;;;;;;;;;;5030720;28;20399;-80
2023/03/12 08:29:41;;;;;;;25.48;22.77;;;;;;;;;;5031700;28;20416;-80
2023/03/12 08:32:09;;;;;;;26.38;23.48;;;;;;;;;;5032670;28;20387;-80
2023/03/12 08:34:35;;;;;;;27.03;24.10;;;;;;;;;;5032015;28;20751;-80
2023/03/12 08:37:01;;;;;;;25.90;23.15;;;;;;;;;;5031873;28;20391;-80
2023/03/12 08:39:27;;;;;;;24.70;22.08;;;;;;;;;;5031772;28;20383;-80
2023/03/12 08:41:54;;;;;;;25.05;22.35;;;;;;;;;;5031769;28;20384;-80
2023/03/12 08:44:21;;;;;;;24.67;22.00;;;;;;;;;;5030479;28;20955;-80
2023/03/12 08:46:47;;;;;;;24.48;21.90;;;;;;;;;;5031662;28;20387;-80
2023/03/12 08:49:13;;;;;;;25.05;22.45;;;;;;;;;;5031741;28;20398;-80
2023/03/12 08:51:39;;;;;;;24.57;22.07;;;;;;;;;;5033815;28;21148;-80
2023/03/12 08:54:05;;;;;;;24.65;22.10;;;;;;;;;;5031549;28;20402;-80
2023/03/12 08:56:31;;;;;;;23.52;21.13;;;;;;;;;;5031596;28;20470;-80
2023/03/12 08:58:57;;;;;;;22.52;20.23;;;;;;;;;;5031416;28;20429;-80
2023/03/12 09:01:23;;;;;;;23.55;21.15;;;;;;;;;;5031624;28;20379;-80
2023/03/12 09:03:51;;;;;;;23.52;21.23;;;;;;;;;;5031723;28;20379;-80
2023/03/12 09:06:18;;;;;;;21.75;19.60;;;;;;;;;;5034354;28;20891;-80
2023/03/12 09:08:44;;;;;;;21.10;19.10;;;;;;;;;;5034309;28;20383;-80
2023/03/12 09:11:11;;;;;;;21.23;19.25;;;;;;;;;;5036250;28;20414;-79
2023/03/12 09:13:37;;;;;;;20.00;18.10;;;;;;;;;;5026524;28;20399;-79
2023/03/12 09:16:04;;;;;;;20.02;18.20;;;;;;;;;;5034983;28;20792;-80
2023/03/12 09:18:30;;;;;;;18.85;16.95;;;;;;;;;;5033489;28;20375;-80
2023/03/12 09:20:56;;;;;;;18.08;16.40;;;;;;;;;;5036404;28;20437;-80
2023/03/12 09:23:23;;;;;;;17.02;15.60;;;;;;;;;;5031823;28;20734;-80
2023/03/12 09:25:49;;;;;;;17.90;16.30;;;;;;;;;;5031197;28;20864;-80
2023/03/12 09:28:15;;;;;;;17.35;15.82;;;;;;;;;;5032087;28;20445;-80
2023/03/12 09:30:41;;;;;;;16.77;15.27;;;;;;;;;;5031176;28;20726;-80
2023/03/12 09:33:07;;;;;;;16.45;15.02;;;;;;;;;;5031324;28;20433;-80
2023/03/12 09:35:33;;;;;;;17.10;15.60;;;;;;;;;;5031073;28;20407;-79
2023/03/12 09:38:00;;;;;;;17.05;15.63;;;;;;;;;;5031071;28;20379;-80
2023/03/12 09:40:28;;;;;;;15.43;14.23;;;;;;;;;;5031069;28;20391;-80
2023/03/12 09:43:01;;;;;;;15.35;14.15;;;;;;;;;;5031157;28;20421;-80
2023/03/12 09:45:29;;;;;;;15.85;14.55;;;;;;;;;;5031027;28;20880;-80
2023/03/12 09:47:56;;;;;;;14.60;13.43;;;;;;;;;;5034361;28;20430;-80
2023/03/12 09:50:28;;;;;;;13.50;12.48;;;;;;;;;;5033051;28;20390;-79
2023/03/12 09:52:59;;;;;;;14.88;13.77;;;;;;;;;;5034986;28;20416;-80
2023/03/12 09:55:25;;;;;;;14.40;13.30;;;;;;;;;;5034798;28;20477;-80
2023/03/12 09:57:51;;;;;;;15.05;13.82;;;;;;;;;;5034965;28;20897;-80
2023/03/12 10:00:19;;;;;;;14.52;13.43;;;;;;;;;;5034994;28;20382;-80
2023/03/12 10:03:05;;;;;;;13.27;12.27;;;;;;;;;;5034910;28;20622;-80
2023/03/12 10:05:35;;;;;;;14.48;13.38;;;;;;;;;;5034799;28;20510;-80
2023/03/12 10:08:27;;;;;;;15.35;14.07;;;;;;;;;;5034739;28;20857;-80
2023/03/12 10:10:56;;;;;;;14.77;13.77;;;;;;;;;;5033182;28;20525;-80
2023/03/12 10:13:26;;;;;;;14.05;13.00;;;;;;;;;;5034684;28;20474;-80
2023/03/12 10:16:07;;;;;;;13.45;12.45;;;;;;;;;;5034501;28;20444;-80
2023/03/12 10:18:36;;;;;;;12.52;11.63;;;;;;;;;;5033228;28;20388;-80
2023/03/12 10:21:14;;;;;;;13.35;12.15;;;;;;;;;;5033229;28;20402;-80
2023/03/12 10:23:58;;;;;;;11.75;10.88;;;;;;;;;;5034426;28;20801;-80
2023/03/12 10:26:24;;;;;;;12.93;12.02;;;;;;;;;;5034420;28;20383;-80
2023/03/12 10:28:50;;;;;;;11.48;10.68;;;;;;;;;;5041138;28;20379;-80
2023/03/12 10:31:23;;;;;;;12.60;11.70;;;;;;;;;;5035372;28;20465;-80
2023/03/12 10:33:49;;;;;;;13.85;12.85;;;;;;;;;;5034422;28;20379;-80
2023/03/12 10:36:17;;;;;;;13.55;12.57;;;;;;;;;;5034979;28;20403;-80
2023/03/12 10:38:43;;;;;;;12.98;12.05;;;;;;;;;;5034480;28;20445;-80
2023/03/12 10:41:17;;;;;;;13.35;12.45;;;;;;;;;;5034257;28;20379;-80
2023/03/12 10:43:43;;;;;;;13.23;12.32;;;;;;;;;;5036955;28;20367;-79
2023/03/12 10:46:15;;;;;;;12.68;11.77;;;;;;;;;;5034717;28;20390;-80
2023/03/12 10:48:42;;;;;;;13.23;12.23;;;;;;;;;;5033935;28;20391;-80
2023/03/12 10:51:12;;;;;;;13.30;12.32;;;;;;;;;;5033993;28;20884;-80
2023/03/12 10:53:39;;;;;;;13.25;12.35;;;;;;;;;;5043363;28;20395;-81
2023/03/12 10:56:07;;;;;;;13.20;12.30;;;;;;;;;;5033984;28;20741;-80
2023/03/12 10:58:44;;;;;;;12.48;11.57;;;;;;;;;;5033893;28;20811;-80
2023/03/12 11:01:20;;;;;;;11.90;11.10;;;;;;;;;;5033634;28;20386;-80
2023/03/12 11:03:46;;;;;;;12.30;11.40;;;;;;;;;;5033683;28;20376;-80
2023/03/12 11:06:29;;;;;;;11.32;10.52;;;;;;;;;;5036217;28;20415;-79
2023/03/12 11:09:02;;;;;;;10.60;9.90;;;;;;;;;;5033674;28;20553;-79
2023/03/12 11:11:33;;;;;;;10.27;9.52;;;;;;;;;;5034137;28;20399;-81
2023/03/12 11:14:07;;;;;;;10.20;9.50;;;;;;;;;;5032214;28;20381;-80
2023/03/12 11:16:33;;;;;;;10.85;10.15;;;;;;;;;;5033425;28;20387;-80
2023/03/12 11:19:00;;;;;;;12.18;11.32;;;;;;;;;;5033832;28;20390;-80
2023/03/12 11:21:27;;;;;;;13.10;12.20;;;;;;;;;;5033594;28;20860;-80
2023/03/12 11:23:56;;;;;;;12.80;11.90;;;;;;;;;;5033508;28;20385;-80
2023/03/12 11:26:23;;;;;;;12.80;11.90;;;;;;;;;;5033618;28;20473;-80
2023/03/12 11:29:00;;;;;;;13.38;12.40;;;;;;;;;;5035142;28;20383;-80
2023/03/12 11:31:28;;;;;;;13.90;12.80;;;;;;;;;;5045419;28;20380;-80
2023/03/12 11:33:58;;;;;;;14.23;13.18;;;;;;;;;;5034999;28;20726;-80
2023/03/12 11:36:43;;;;;;;15.02;14.02;;;;;;;;;;5034231;28;20413;-80
2023/03/12 11:39:14;;;;;;;15.13;14.02;;;;;;;;;;5032764;28;20371;-80
2023/03/12 11:41:49;;;;;;;14.10;13.00;;;;;;;;;;5033843;28;20459;-80
2023/03/12 11:44:25;;;;;;;12.93;12.00;;;;;;;;;;5033936;28;20387;-80
2023/03/12 11:47:06;;;;;;;14.73;13.63;;;;;;;;;;5024797;28;20436;-81
2023/03/12 11:49:42;;;;;;;13.88;12.80;;;;;;;;;;5029333;28;20387;-80
2023/03/12 11:52:08;;;;;;;12.45;11.55;;;;;;;;;;5030985;28;20391;-80
2023/03/12 11:54:34;;;;;;;12.90;11.90;;;;;;;;;;5031393;28;20415;-79
2023/03/12 11:57:09;;;;;;;14.47;13.37;;;;;;;;;;5031745;28;20382;-81
2023/03/12 11:59:38;;;;;;;13.05;12.15;;;;;;;;;;5038209;28;20384;-81
2023/03/12 12:02:23;;;;;;;12.85;11.95;;;;;;;;;;5032531;28;20379;-80
2023/03/12 12:05:07;;;;;;;14.05;13.02;;;;;;;;;;5032536;28;20943;-80
2023/03/12 12:07:44;;;;;;;10.43;9.63;;;;;;;;;;5032330;28;20572;-80
2023/03/12 12:10:42;;;;;;;10.20;9.40;;;;;;;;;;5032109;28;20925;-80
2023/03/12 12:13:16;;;;;;;9.15;8.40;;;;;;;;;;5009608;28;20753;-80
2023/03/12 12:15:49;;;;;;;8.50;7.90;;;;;;;;;;5031862;28;20457;-80
2023/03/12 12:18:27;;;;;;;8.68;8.07;;;;;;;;;;5032118;28;20387;-81
2023/03/12 12:21:23;;;;;;;8.67;8.07;;;;;;;;;;5031924;28;20387;-80
2023/03/12 12:24:03;;;;;;;7.45;6.95;;;;;;;;;;5023499;28;21039;-81
2023/03/12 12:26:38;;;;;;;4.30;4.00;;;;;;;;;;5031923;28;20386;-80
2023/03/12 12:29:22;;;;;;;5.53;5.13;;;;;;;;;;5031941;28;20391;-80
2023/03/12 12:31:53;;;;;;;5.47;5.07;;;;;;;;;;5040991;28;20747;-80
2023/03/12 12:34:34;;;;;;;3.60;3.30;;;;;;;;;;5036568;28;20836;-80
2023/03/12 12:37:12;;;;;;;3.35;3.13;;;;;;;;;;5040302;28;20401;-80
2023/03/12 12:39:41;;;;;;;3.00;2.80;;;;;;;;;;5042685;28;20421;-81
2023/03/12 12:42:09;;;;;;;2.58;2.38;;;;;;;;;;5041931;28;20383;-80
2023/03/12 12:44:38;;;;;;;1.65;1.52;;;;;;;;;;5043655;28;20432;-80
2023/03/12 12:47:06;;;;;;;1.70;1.40;;;;;;;;;;5040709;28;20394;-80
2023/03/12 12:49:39;;;;;;;2.38;1.20;;;;;;;;;;5035066;28;20390;-81
2023/03/12 12:52:07;;;;;;;2.43;1.33;;;;;;;;;;5032797;28;20483;-81
2023/03/12 12:54:36;;;;;;;2.65;1.50;;;;;;;;;;5032285;28;20403;-81
2023/03/12 12:57:15;;;;;;;3.67;1.60;;;;;;;;;;5031989;28;20371;-80
2023/03/12 12:59:50;;;;;;;4.65;1.55;;;;;;;;;;5031720;28;20384;-81
2023/03/12 13:02:19;;;;;;;3.88;1.60;;;;;;;;;;5031728;28;20415;-80
2023/03/12 13:04:45;;;;;;;4.55;1.30;;;;;;;;;;5031590;28;20383;-81
2023/03/12 13:07:11;;;;;;;4.30;1.50;;;;;;;;;;5031810;28;20414;-80
2023/03/12 13:09:42;;;;;;;3.65;1.52;;;;;;;;;;5031265;28;20443;-80
2023/03/12 13:12:34;;;;;;;5.03;1.80;;;;;;;;;;5031396;28;20462;-81
2023/03/12 13:15:01;;;;;;;5.20;1.80;;;;;;;;;;5029356;28;20530;-80
2023/03/12 13:17:30;;;;;;;3.47;1.48;;;;;;;;;;5027613;28;20394;-80
2023/03/12 13:20:07;;;;;;;3.67;1.50;;;;;;;;;;5031265;28;20386;-81
2023/03/12 13:22:52;;;;;;;4.80;1.50;;;;;;;;;;5031231;28;20386;-81
2023/03/12 13:25:23;;;;;;;3.20;1.55;;;;;;;;;;5031222;28;20461;-80
2023/03/12 13:27:57;;;;;;;2.90;1.30;;;;;;;;;;5035418;28;20397;-81
2023/03/12 13:30:32;;;;;;;4.22;1.50;;;;;;;;;;5035460;28;20387;-81
2023/03/12 13:32:58;;;;;;;3.83;1.30;;;;;;;;;;5035336;28;20783;-80
2023/03/12 13:35:24;;;;;;;3.10;1.27;;;;;;;;;;5043480;28;20434;-80
2023/03/12 13:37:52;;;;;;;4.77;1.70;;;;;;;;;;5035245;28;20946;-81
2023/03/12 13:40:38;;;;;;;5.70;1.87;;;;;;;;;;5035084;28;20387;-80
2023/03/12 13:43:07;;;;;;;6.88;1.92;;;;;;;;;;5035123;28;20403;-80
2023/03/12 13:45:34;;;;;;;5.60;1.80;;;;;;;;;;5035032;28;20383;-81
2023/03/12 13:48:01;;;;;;;5.80;2.15;;;;;;;;;;5035123;28;20433;-81
2023/03/12 13:50:29;;;;;;;6.53;1.93;;;;;;;;;;5034678;28;20386;-80
2023/03/12 13:53:01;;;;;;;4.70;1.60;;;;;;;;;;5034950;28;20437;-79
2023/03/12 13:55:28;;;;;;;4.88;1.63;;;;;;;;;;5031617;28;20408;-81
2023/03/12 13:57:56;;;;;;;4.27;1.30;;;;;;;;;;5024793;28;20473;-80
2023/03/12 14:00:31;;;;;;;5.35;1.65;;;;;;;;;;5033357;28;20440;-80
2023/03/12 14:03:03;;;;;;;4.15;1.63;;;;;;;;;;5034812;28;20418;-80
2023/03/12 14:05:30;;;;;;;4.72;1.38;;;;;;;;;;5037921;28;20388;-80
2023/03/12 14:08:11;;;;;;;4.18;1.55;;;;;;;;;;5046198;28;20391;-80
2023/03/12 14:10:49;;;;;;;3.40;1.33;;;;;;;;;;5034412;28;20760;-80
2023/03/12 14:13:21;;;;;;;4.53;2.10;;;;;;;;;;5034522;28;20379;-80
2023/03/12 14:15:52;;;;;;;3.58;1.67;;;;;;;;;;5034344;28;20403;-80
2023/03/12 14:18:21;;;;;;;4.30;1.70;;;;;;;;;;5034537;28;20466;-80
2023/03/12 14:20:52;;;;;;;5.43;1.40;;;;;;;;;;5034201;28;20379;-80
2023/03/12 14:23:18;;;;;;;3.97;1.50;;;;;;;;;;5034446;28;20391;-80
2023/03/12 14:25:46;;;;;;;4.67;1.50;;;;;;;;;;5034282;28;20954;-80
2023/03/12 14:28:22;;;;;;;4.80;2.05;;;;;;;;;;5034335;28;20398;-80
2023/03/12 14:30:59;;;;;;;4.22;1.90;;;;;;;;;;5034069;28;20414;-80